• Join FlightAware (Why Join?)
  • Login
  • US Flag 
04:54PM EDT


 

Airport Tracker/Info


-or-


 

Live Flight TrackerFlight Track Log ✈ SWA9013 ✈ 22-Jul-2013 ✈ KSMF - KSNA

Flight Track Log - Related Links

Times and Time Zones

All times are in EDT time to prevent confusion due to time zone crossing. See the SWA9013 flight status page for this flight to view local times or setup timezone preferences in your user account.

Time Position Orientation Groundspeed Altitude Reporting Facility
EDT Latitude Longitude Course Direction KTS MPH feet Rate Location/Type
12:06AM 38.6833 -121.6000 134° Southeast 144 166 1,500  Level Northern Cal TRACON
12:07AM 38.6333 -121.5500 142° Southeast 203 234 4,700 3,300 Climbing Northern Cal TRACON
12:09AM 38.5400 -121.3953 128° Southeast 297 342 11,800 3,660 Climbing Oakland Center
12:10AM 38.4950 -121.2903 119° Southeast 332 382 16,100 3,900 Climbing Oakland Center
12:11AM 38.4494 -121.1864 119° Southeast 343 395 19,800 3,180 Climbing Oakland Center
12:12AM 38.2622 -121.2461 134° Southeast  Level Estimated
12:13AM 38.3986 -121.0686 119° Southeast 365 420 22,600  Level Oakland Center
12:14AM 38.3458 -120.9456 119° Southeast 393 452 25,300 2,700 Climbing Oakland Center
12:15AM 38.2906 -120.8181 119° Southeast 411 473 28,200 2,580 Climbing Oakland Center
12:16AM 38.2308 -120.6875 120° Southeast 424 488 30,600 2,220 Climbing Oakland Center
12:17AM 38.1372 -120.5883 140° Southeast 438 504 32,800 2,340 Climbing Oakland Center
12:18AM 38.0400 -120.4928 142° Southeast 440 506 35,400 2,040 Climbing Oakland Center
12:19AM 37.9244 -120.3806 143° Southeast 436 502 37,000 1,080 Climbing Oakland Center
12:20AM 37.8306 -120.2881 142° Southeast 428 493 37,600 1,200 Climbing Oakland Center
12:21AM 37.7356 -120.1958 142° Southeast 430 495 39,500 1,620 Climbing Oakland Center
12:22AM 37.6403 -120.1058 143° Southeast 429 494 41,000 720 Climbing Oakland Center
12:23AM 37.5469 -120.0153 142° Southeast 425 489 41,000  Level Oakland Center
12:24AM 37.4525 -119.9256 143° Southeast 425 489 41,000  Level Oakland Center
12:25AM 37.3586 -119.8364 143° Southeast 425 489 41,000  Level Oakland Center
12:26AM 37.2353 -119.8061 169° South 426 490 41,000  Level Oakland Center
12:27AM 37.1206 -119.7872 173° South 417 480 41,000  Level Oakland Center
12:28AM 37.0050 -119.7681 172° South 419 482 41,000  Level Oakland Center
12:29AM 36.8911 -119.7517 173° South 414 476 41,000  Level Oakland Center
12:30AM 36.7750 -119.7342 173° South 418 481 41,000  Level Oakland Center
12:31AM 36.6594 -119.7164 173° South 418 481 41,000  Level Oakland Center
12:32AM 36.5439 -119.7006 174° South 417 480 41,000  Level Oakland Center
12:33AM 36.4278 -119.6839 173° South 418 481 41,000  Level Oakland Center
12:34AM 36.3128 -119.6644 172° South 415 478 41,000  Level Oakland Center
12:35AM 36.1975 -119.6481 173° South 417 480 41,000  Level Oakland Center
12:36AM 36.0819 -119.6306 173° South 417 480 41,000  Level Oakland Center
12:37AM 35.9428 -119.6153 175° South 416 479 41,000  Level Oakland Center
12:38AM 35.8258 -119.6203 182° South 418 481 41,000  Level Oakland Center
12:39AM 35.7078 -119.6239 181° South 421 484 41,000  Level Oakland Center
12:40AM 35.5892 -119.6286 182° South 423 487 41,000  Level Oakland Center
12:40AM 35.5664 -119.6311 185° South 423 487 41,000  Level Los Angeles Center
12:42AM 35.4261 -119.6258 178° South 419 482 41,000  Level Los Angeles Center
12:43AM 35.3217 -119.5575 152° Southeast 422 486 41,000  Level Los Angeles Center
12:44AM 35.2011 -119.4708 150° Southeast 417 480 41,000  Level Los Angeles Center
12:45AM 35.0997 -119.3994 150° Southeast 419 482 41,000  Level Los Angeles Center
12:46AM 34.9981 -119.3278 150° Southeast 419 482 41,000 -480 Level Los Angeles Center
12:47AM 34.8972 -119.2578 150° Southeast 418 481 40,100 -1,680 Descending Los Angeles Center
12:48AM 34.8006 -119.1900 150° Southeast 405 466 37,700 -2,460 Descending Los Angeles Center
12:49AM 34.7053 -119.1222 150° Southeast 408 470 35,100 -3,000 Descending Los Angeles Center
12:50AM 34.5969 -119.0497 151° Southeast 441 507 31,600 -3,120 Descending Los Angeles Center
12:51AM 34.4886 -118.9744 150° Southeast 449 517 28,800 -2,940 Descending Los Angeles Center
12:52AM 34.3653 -118.8897 150° Southeast 427 491 25,600 -2,640 Descending Los Angeles Center
12:53AM 34.2806 -118.8531 160° South 410 472 23,500 -2,280 Descending Los Angeles Center
12:54AM 34.1569 -118.8081 163° South 388 447 20,500 -2,700 Descending Los Angeles Center
12:55AM 34.0356 -118.7631 163° South 373 429 17,500 -2,880 Descending Los Angeles Center
12:56AM 33.9331 -118.7258 163° South 360 414 14,700 -1,740 Descending Los Angeles Center
12:57AM 33.8414 -118.6925 163° South 346 398 14,000 -720 Descending Los Angeles Center
12:58AM 33.7611 -118.6644 164° South 341 392 13,300 -1,620 Descending Los Angeles Center
12:59AM 33.6586 -118.6128 157° South 337 388 10,700 -1,800 Descending Los Angeles Center
01:01AM 33.5247 -118.5414 140° Southeast  Level FlightAware Approximate
01:02AM 33.5833 -118.3833 132° Southeast 282 325 6,500  Level Southern California TRACON
01:03AM 33.6000 -118.2833 79° East 275 316 5,000 -1,020 Descending Southern California TRACON
01:04AM 33.6333 -118.2167 59° Northeast 236 272 4,400 -780 Descending Southern California TRACON
01:05AM 33.6667 -118.1500 59° Northeast 222 255 3,500 -780 Descending Southern California TRACON
01:06AM 33.7000 -118.0833 59° Northeast 218 251 3,000 -300 Descending Southern California TRACON
01:07AM 33.7167 -118.0167 73° East 218 251 3,000 -180 Level Southern California TRACON
01:08AM 33.7602 -118.0500 North  Level FlightAware Approximate
01:08AM 33.7500 -117.9500 59° Northeast 208 239 2,700  Level Southern California TRACON
01:09AM 33.7232 -117.9530 112° Southeast  Level FlightAware Approximate
01:09AM 33.7833 -117.9000 51° Northeast 194 223 2,300  Level Southern California TRACON
01:10AM 33.6667 -117.8667 132° Southeast  Level FlightAware Approximate
01:10AM 33.7667 -117.8500 112° Southeast 150 173 2,000  Level Southern California TRACON
01:11AM 33.6757 -117.8682 132° Southeast  Level Estimated
01:11AM 33.7333 -117.8333 157° South 137 158 1,300  Level Southern California TRACON
01:12AM 33.6757 -117.8682 132° Southeast  Level Estimated
01:12AM 33.7000 -117.8500 203° Southwest 125 144 700  Level Southern California TRACON
01:15AM 33.6757 -117.8682 189° South  Level Estimated